sensor_id;sensor_type;location;lat;lon;timestamp;temperature;humidity
21123;DHT22;10719;48.130;11.630;2024-01-30T00:01:11;0.40;99.90
21123;DHT22;10719;48.130;11.630;2024-01-30T00:03:38;0.30;99.90
21123;DHT22;10719;48.130;11.630;2024-01-30T00:06:03;0.30;99.90
21123;DHT22;10719;48.130;11.630;2024-01-30T00:08:29;0.20;99.90
21123;DHT22;10719;48.130;11.630;2024-01-30T00:10:55;0.10;99.90
21123;DHT22;10719;48.130;11.630;2024-01-30T00:13:20;0.10;99.90
21123;DHT22;10719;48.130;11.630;2024-01-30T00:15:46;0.20;99.90
21123;DHT22;10719;48.130;11.630;2024-01-30T00:18:12;0.20;99.90
21123;DHT22;10719;48.130;11.630;2024-01-30T00:20:37;0.20;99.90
21123;DHT22;10719;48.130;11.630;2024-01-30T00:23:03;0.20;99.90
21123;DHT22;10719;48.130;11.630;2024-01-30T00:25:29;0.20;99.90
21123;DHT22;10719;48.130;11.630;2024-01-30T00:27:54;0.20;99.90
21123;DHT22;10719;48.130;11.630;2024-01-30T00:30:20;0.20;99.90
21123;DHT22;10719;48.130;11.630;2024-01-30T00:32:46;0.10;99.90
21123;DHT22;10719;48.130;11.630;2024-01-30T00:35:11;0.10;99.90
21123;DHT22;10719;48.130;11.630;2024-01-30T00:37:37;0.10;99.90
21123;DHT22;10719;48.130;11.630;2024-01-30T00:40:03;0.10;99.90
21123;DHT22;10719;48.130;11.630;2024-01-30T00:42:29;0.10;99.90
21123;DHT22;10719;48.130;11.630;2024-01-30T00:44:54;0.10;99.90
21123;DHT22;10719;48.130;11.630;2024-01-30T00:47:20;0.00;99.90
21123;DHT22;10719;48.130;11.630;2024-01-30T00:49:46;0.10;99.90
21123;DHT22;10719;48.130;11.630;2024-01-30T00:52:11;0.00;99.90
21123;DHT22;10719;48.130;11.630;2024-01-30T00:54:37;0.00;99.90
21123;DHT22;10719;48.130;11.630;2024-01-30T00:57:03;0.00;99.90
21123;DHT22;10719;48.130;11.630;2024-01-30T00:59:28;0.10;99.90
21123;DHT22;10719;48.130;11.630;2024-01-30T01:01:54;0.20;99.90
21123;DHT22;10719;48.130;11.630;2024-01-30T01:04:20;0.10;99.90
21123;DHT22;10719;48.130;11.630;2024-01-30T01:06:47;0.10;99.90
21123;DHT22;10719;48.130;11.630;2024-01-30T01:09:12;0.00;99.90
21123;DHT22;10719;48.130;11.630;2024-01-30T01:11:38;0.10;99.90
21123;DHT22;10719;48.130;11.630;2024-01-30T01:14:04;0.00;99.90
21123;DHT22;10719;48.130;11.630;2024-01-30T01:16:30;-0.10;99.90
21123;DHT22;10719;48.130;11.630;2024-01-30T01:18:56;-0.10;99.90
21123;DHT22;10719;48.130;11.630;2024-01-30T01:21:21;-0.10;99.90
21123;DHT22;10719;48.130;11.630;2024-01-30T01:23:48;-0.10;99.90
21123;DHT22;10719;48.130;11.630;2024-01-30T01:26:14;-0.10;99.90
21123;DHT22;10719;48.130;11.630;2024-01-30T01:28:41;-0.10;99.90
21123;DHT22;10719;48.130;11.630;2024-01-30T01:31:06;-0.20;99.90
21123;DHT22;10719;48.130;11.630;2024-01-30T01:33:33;-0.20;99.90
21123;DHT22;10719;48.130;11.630;2024-01-30T01:35:59;-0.20;99.90
21123;DHT22;10719;48.130;11.630;2024-01-30T01:38:25;-0.30;99.90
21123;DHT22;10719;48.130;11.630;2024-01-30T01:40:51;-0.30;99.90
21123;DHT22;10719;48.130;11.630;2024-01-30T01:43:16;-0.30;99.90
21123;DHT22;10719;48.130;11.630;2024-01-30T01:45:42;-0.30;99.90
21123;DHT22;10719;48.130;11.630;2024-01-30T01:48:08;-0.30;99.90
21123;DHT22;10719;48.130;11.630;2024-01-30T01:50:34;-0.30;99.90
21123;DHT22;10719;48.130;11.630;2024-01-30T01:53:01;-0.30;99.90
21123;DHT22;10719;48.130;11.630;2024-01-30T01:55:29;-0.40;99.90
21123;DHT22;10719;48.130;11.630;2024-01-30T01:57:55;-0.40;99.90
21123;DHT22;10719;48.130;11.630;2024-01-30T02:00:21;-0.40;99.90
21123;DHT22;10719;48.130;11.630;2024-01-30T02:02:47;-0.40;99.90
21123;DHT22;10719;48.130;11.630;2024-01-30T02:05:14;-0.40;99.90
21123;DHT22;10719;48.130;11.630;2024-01-30T02:07:39;-0.40;99.90
21123;DHT22;10719;48.130;11.630;2024-01-30T02:10:07;-0.40;99.90
21123;DHT22;10719;48.130;11.630;2024-01-30T02:12:33;-0.40;99.90
21123;DHT22;10719;48.130;11.630;2024-01-30T02:14:58;-0.40;99.90
21123;DHT22;10719;48.130;11.630;2024-01-30T02:17:24;-0.40;99.90
21123;DHT22;10719;48.130;11.630;2024-01-30T02:19:49;-0.40;99.90
21123;DHT22;10719;48.130;11.630;2024-01-30T02:22:15;-0.40;99.90
21123;DHT22;10719;48.130;11.630;2024-01-30T02:24:41;-0.50;99.90
21123;DHT22;10719;48.130;11.630;2024-01-30T02:27:06;-0.50;99.90
21123;DHT22;10719;48.130;11.630;2024-01-30T02:29:32;-0.50;99.90
21123;DHT22;10719;48.130;11.630;2024-01-30T02:31:57;-0.50;99.90
21123;DHT22;10719;48.130;11.630;2024-01-30T02:34:24;-0.50;99.90
21123;DHT22;10719;48.130;11.630;2024-01-30T02:36:49;-0.50;99.90
21123;DHT22;10719;48.130;11.630;2024-01-30T02:39:15;-0.50;99.90
21123;DHT22;10719;48.130;11.630;2024-01-30T02:41:40;-0.60;99.90
21123;DHT22;10719;48.130;11.630;2024-01-30T02:44:06;-0.60;99.90
21123;DHT22;10719;48.130;11.630;2024-01-30T02:46:31;-0.60;99.90
21123;DHT22;10719;48.130;11.630;2024-01-30T02:48:57;-0.60;99.90
21123;DHT22;10719;48.130;11.630;2024-01-30T02:51:23;-0.60;99.90
21123;DHT22;10719;48.130;11.630;2024-01-30T02:53:48;-0.60;99.90
21123;DHT22;10719;48.130;11.630;2024-01-30T02:56:14;-0.70;99.90
21123;DHT22;10719;48.130;11.630;2024-01-30T02:58:40;-0.70;99.90
21123;DHT22;10719;48.130;11.630;2024-01-30T03:01:06;-0.70;99.90
21123;DHT22;10719;48.130;11.630;2024-01-30T03:03:32;-0.70;99.90
21123;DHT22;10719;48.130;11.630;2024-01-30T03:05:59;-0.80;99.90
21123;DHT22;10719;48.130;11.630;2024-01-30T03:08:25;-0.70;99.90
21123;DHT22;10719;48.130;11.630;2024-01-30T03:10:50;-0.80;99.90
21123;DHT22;10719;48.130;11.630;2024-01-30T03:13:16;-0.80;99.90
21123;DHT22;10719;48.130;11.630;2024-01-30T03:15:41;-0.80;99.90
21123;DHT22;10719;48.130;11.630;2024-01-30T03:18:07;-0.80;99.90
21123;DHT22;10719;48.130;11.630;2024-01-30T03:20:32;-0.80;99.90
21123;DHT22;10719;48.130;11.630;2024-01-30T03:23:00;-0.70;99.90
21123;DHT22;10719;48.130;11.630;2024-01-30T03:25:25;-0.70;99.90
21123;DHT22;10719;48.130;11.630;2024-01-30T03:27:51;-0.70;99.90
21123;DHT22;10719;48.130;11.630;2024-01-30T03:30:17;-0.60;99.90
21123;DHT22;10719;48.130;11.630;2024-01-30T03:32:43;-0.60;99.90
21123;DHT22;10719;48.130;11.630;2024-01-30T03:35:09;-0.60;99.90
21123;DHT22;10719;48.130;11.630;2024-01-30T03:37:35;-0.50;99.90
21123;DHT22;10719;48.130;11.630;2024-01-30T03:40:02;-0.40;99.90
21123;DHT22;10719;48.130;11.630;2024-01-30T03:42:27;-0.40;99.90
21123;DHT22;10719;48.130;11.630;2024-01-30T03:44:53;-0.30;99.90
21123;DHT22;10719;48.130;11.630;2024-01-30T03:47:20;-0.20;99.90
21123;DHT22;10719;48.130;11.630;2024-01-30T03:49:46;-0.20;99.90
21123;DHT22;10719;48.130;11.630;2024-01-30T03:52:12;-0.20;99.90
21123;DHT22;10719;48.130;11.630;2024-01-30T03:54:37;-0.30;99.90
21123;DHT22;10719;48.130;11.630;2024-01-30T03:57:03;-0.30;99.90
21123;DHT22;10719;48.130;11.630;2024-01-30T03:59:29;-0.40;99.90
21123;DHT22;10719;48.130;11.630;2024-01-30T04:01:54;-0.40;99.90
21123;DHT22;10719;48.130;11.630;2024-01-30T04:04:20;-0.40;99.90
21123;DHT22;10719;48.130;11.630;2024-01-30T04:06:46;-0.50;99.90
21123;DHT22;10719;48.130;11.630;2024-01-30T04:09:15;-0.50;99.90
21123;DHT22;10719;48.130;11.630;2024-01-30T04:11:41;-0.60;99.90
21123;DHT22;10719;48.130;11.630;2024-01-30T04:14:07;-0.60;99.90
21123;DHT22;10719;48.130;11.630;2024-01-30T04:16:33;-0.50;99.90
21123;DHT22;10719;48.130;11.630;2024-01-30T04:18:59;-0.50;99.90
21123;DHT22;10719;48.130;11.630;2024-01-30T04:21:24;-0.50;99.90
21123;DHT22;10719;48.130;11.630;2024-01-30T04:23:51;-0.50;99.90
21123;DHT22;10719;48.130;11.630;2024-01-30T04:26:17;-0.50;99.90
21123;DHT22;10719;48.130;11.630;2024-01-30T04:28:44;-0.50;99.90
21123;DHT22;10719;48.130;11.630;2024-01-30T04:31:10;-0.50;99.90
21123;DHT22;10719;48.130;11.630;2024-01-30T04:33:36;-0.50;99.90
21123;DHT22;10719;48.130;11.630;2024-01-30T04:36:02;-0.50;99.90
21123;DHT22;10719;48.130;11.630;2024-01-30T04:38:28;-0.50;99.90
21123;DHT22;10719;48.130;11.630;2024-01-30T04:40:54;-0.40;99.90
21123;DHT22;10719;48.130;11.630;2024-01-30T04:43:19;-0.30;99.90
21123;DHT22;10719;48.130;11.630;2024-01-30T04:45:45;-0.20;99.90
21123;DHT22;10719;48.130;11.630;2024-01-30T04:48:10;-0.20;99.90
21123;DHT22;10719;48.130;11.630;2024-01-30T04:50:36;-0.20;99.90
21123;DHT22;10719;48.130;11.630;2024-01-30T04:53:01;-0.20;99.90
21123;DHT22;10719;48.130;11.630;2024-01-30T04:55:27;-0.20;99.90
21123;DHT22;10719;48.130;11.630;2024-01-30T04:57:53;-0.20;99.90
21123;DHT22;10719;48.130;11.630;2024-01-30T05:00:18;-0.20;99.90
21123;DHT22;10719;48.130;11.630;2024-01-30T05:02:44;-0.30;99.90
21123;DHT22;10719;48.130;11.630;2024-01-30T05:05:10;-0.30;99.90
21123;DHT22;10719;48.130;11.630;2024-01-30T05:07:36;-0.30;99.90
21123;DHT22;10719;48.130;11.630;2024-01-30T05:10:02;-0.30;99.90
21123;DHT22;10719;48.130;11.630;2024-01-30T05:12:28;-0.30;99.90
21123;DHT22;10719;48.130;11.630;2024-01-30T05:14:54;-0.30;99.90
21123;DHT22;10719;48.130;11.630;2024-01-30T05:17:20;-0.30;99.90
21123;DHT22;10719;48.130;11.630;2024-01-30T05:19:45;-0.30;99.90
21123;DHT22;10719;48.130;11.630;2024-01-30T05:22:11;-0.40;99.90
21123;DHT22;10719;48.130;11.630;2024-01-30T05:24:44;-0.40;99.90
21123;DHT22;10719;48.130;11.630;2024-01-30T05:27:09;-0.40;99.90
21123;DHT22;10719;48.130;11.630;2024-01-30T05:29:35;-0.50;99.90
21123;DHT22;10719;48.130;11.630;2024-01-30T05:32:01;-0.40;99.90
21123;DHT22;10719;48.130;11.630;2024-01-30T05:34:27;-0.40;99.90
21123;DHT22;10719;48.130;11.630;2024-01-30T05:36:52;-0.40;99.90
21123;DHT22;10719;48.130;11.630;2024-01-30T05:39:18;-0.40;99.90
21123;DHT22;10719;48.130;11.630;2024-01-30T05:41:43;-0.50;99.90
21123;DHT22;10719;48.130;11.630;2024-01-30T05:44:09;-0.50;99.90
21123;DHT22;10719;48.130;11.630;2024-01-30T05:46:35;-0.50;99.90
21123;DHT22;10719;48.130;11.630;2024-01-30T05:49:01;-0.50;99.90
21123;DHT22;10719;48.130;11.630;2024-01-30T05:51:26;-0.50;99.90
21123;DHT22;10719;48.130;11.630;2024-01-30T05:53:53;-0.60;99.90
21123;DHT22;10719;48.130;11.630;2024-01-30T05:56:19;-0.60;99.90
21123;DHT22;10719;48.130;11.630;2024-01-30T05:58:44;-0.60;99.90
21123;DHT22;10719;48.130;11.630;2024-01-30T06:01:10;-0.60;99.90
21123;DHT22;10719;48.130;11.630;2024-01-30T06:03:35;-0.50;99.90
21123;DHT22;10719;48.130;11.630;2024-01-30T06:06:01;-0.50;99.90
21123;DHT22;10719;48.130;11.630;2024-01-30T06:08:27;-0.50;99.90
21123;DHT22;10719;48.130;11.630;2024-01-30T06:10:52;-0.40;99.90
21123;DHT22;10719;48.130;11.630;2024-01-30T06:13:18;-0.40;99.90
21123;DHT22;10719;48.130;11.630;2024-01-30T06:15:43;-0.50;99.90
21123;DHT22;10719;48.130;11.630;2024-01-30T06:18:09;-0.50;99.90
21123;DHT22;10719;48.130;11.630;2024-01-30T06:20:35;-0.50;99.90
21123;DHT22;10719;48.130;11.630;2024-01-30T06:23:01;-0.50;99.90
21123;DHT22;10719;48.130;11.630;2024-01-30T06:25:26;-0.50;99.90
21123;DHT22;10719;48.130;11.630;2024-01-30T06:27:52;-0.50;99.90
21123;DHT22;10719;48.130;11.630;2024-01-30T06:30:18;-0.50;99.90
21123;DHT22;10719;48.130;11.630;2024-01-30T06:32:44;-0.50;99.90
21123;DHT22;10719;48.130;11.630;2024-01-30T06:35:09;-0.50;99.90
21123;DHT22;10719;48.130;11.630;2024-01-30T06:37:36;-0.50;99.90
21123;DHT22;10719;48.130;11.630;2024-01-30T06:40:02;-0.50;99.90
21123;DHT22;10719;48.130;11.630;2024-01-30T06:42:27;-0.40;99.90
21123;DHT22;10719;48.130;11.630;2024-01-30T06:44:53;-0.40;99.90
21123;DHT22;10719;48.130;11.630;2024-01-30T06:47:19;-0.40;99.90
21123;DHT22;10719;48.130;11.630;2024-01-30T06:49:44;-0.40;99.90
21123;DHT22;10719;48.130;11.630;2024-01-30T06:52:10;-0.30;99.90
21123;DHT22;10719;48.130;11.630;2024-01-30T06:54:36;-0.20;99.90
21123;DHT22;10719;48.130;11.630;2024-01-30T06:57:02;-0.20;99.90
21123;DHT22;10719;48.130;11.630;2024-01-30T06:59:28;-0.10;99.90
21123;DHT22;10719;48.130;11.630;2024-01-30T07:01:54;-0.10;99.90
21123;DHT22;10719;48.130;11.630;2024-01-30T07:04:19;-0.10;99.90
21123;DHT22;10719;48.130;11.630;2024-01-30T07:06:45;0.00;99.90
21123;DHT22;10719;48.130;11.630;2024-01-30T07:09:11;0.00;99.90
21123;DHT22;10719;48.130;11.630;2024-01-30T07:11:37;0.00;99.90
21123;DHT22;10719;48.130;11.630;2024-01-30T07:14:03;0.10;99.90
21123;DHT22;10719;48.130;11.630;2024-01-30T07:16:31;0.20;99.90
21123;DHT22;10719;48.130;11.630;2024-01-30T07:18:57;0.20;99.90
21123;DHT22;10719;48.130;11.630;2024-01-30T07:21:23;0.20;99.90
21123;DHT22;10719;48.130;11.630;2024-01-30T07:23:56;0.20;99.90
21123;DHT22;10719;48.130;11.630;2024-01-30T07:26:22;0.20;99.90
21123;DHT22;10719;48.130;11.630;2024-01-30T07:28:47;0.20;99.90
21123;DHT22;10719;48.130;11.630;2024-01-30T07:31:13;0.20;99.90
21123;DHT22;10719;48.130;11.630;2024-01-30T07:33:39;0.30;99.90
21123;DHT22;10719;48.130;11.630;2024-01-30T07:36:04;0.30;99.90
21123;DHT22;10719;48.130;11.630;2024-01-30T07:38:33;0.30;99.90
21123;DHT22;10719;48.130;11.630;2024-01-30T07:40:59;0.40;99.90
21123;DHT22;10719;48.130;11.630;2024-01-30T07:43:24;0.40;99.90
21123;DHT22;10719;48.130;11.630;2024-01-30T07:45:50;0.50;99.90
21123;DHT22;10719;48.130;11.630;2024-01-30T07:48:15;0.50;99.90
21123;DHT22;10719;48.130;11.630;2024-01-30T07:50:41;0.60;99.90
21123;DHT22;10719;48.130;11.630;2024-01-30T07:53:07;0.70;99.90
21123;DHT22;10719;48.130;11.630;2024-01-30T07:55:32;0.70;99.90
21123;DHT22;10719;48.130;11.630;2024-01-30T07:57:58;0.80;99.90
21123;DHT22;10719;48.130;11.630;2024-01-30T08:00:27;0.90;99.90
21123;DHT22;10719;48.130;11.630;2024-01-30T08:02:54;1.00;99.90
21123;DHT22;10719;48.130;11.630;2024-01-30T08:05:21;1.10;99.90
21123;DHT22;10719;48.130;11.630;2024-01-30T08:07:48;1.20;99.90
21123;DHT22;10719;48.130;11.630;2024-01-30T08:10:14;1.20;99.90
21123;DHT22;10719;48.130;11.630;2024-01-30T08:12:40;1.40;99.90
21123;DHT22;10719;48.130;11.630;2024-01-30T08:15:06;1.50;99.90
21123;DHT22;10719;48.130;11.630;2024-01-30T08:17:31;1.50;99.90
21123;DHT22;10719;48.130;11.630;2024-01-30T08:19:57;1.70;99.90
21123;DHT22;10719;48.130;11.630;2024-01-30T08:22:22;1.80;99.90
21123;DHT22;10719;48.130;11.630;2024-01-30T08:24:48;1.90;99.90
21123;DHT22;10719;48.130;11.630;2024-01-30T08:27:14;2.00;99.90
21123;DHT22;10719;48.130;11.630;2024-01-30T08:29:40;2.10;99.90
21123;DHT22;10719;48.130;11.630;2024-01-30T08:32:06;2.20;99.90
21123;DHT22;10719;48.130;11.630;2024-01-30T08:34:32;2.30;99.90
21123;DHT22;10719;48.130;11.630;2024-01-30T08:36:57;2.40;99.90
21123;DHT22;10719;48.130;11.630;2024-01-30T08:39:23;2.40;99.90
21123;DHT22;10719;48.130;11.630;2024-01-30T08:41:49;2.50;99.90
21123;DHT22;10719;48.130;11.630;2024-01-30T08:44:14;2.50;99.90
21123;DHT22;10719;48.130;11.630;2024-01-30T08:46:40;2.60;99.90
21123;DHT22;10719;48.130;11.630;2024-01-30T08:49:05;2.60;99.90
21123;DHT22;10719;48.130;11.630;2024-01-30T08:51:31;2.60;99.90
21123;DHT22;10719;48.130;11.630;2024-01-30T08:53:56;2.70;99.90
21123;DHT22;10719;48.130;11.630;2024-01-30T08:56:22;2.80;99.90
21123;DHT22;10719;48.130;11.630;2024-01-30T08:58:48;3.00;99.90
21123;DHT22;10719;48.130;11.630;2024-01-30T09:01:14;3.10;99.90
21123;DHT22;10719;48.130;11.630;2024-01-30T09:03:40;3.30;99.90
21123;DHT22;10719;48.130;11.630;2024-01-30T09:06:10;3.50;99.90
21123;DHT22;10719;48.130;11.630;2024-01-30T09:08:36;3.60;99.90
21123;DHT22;10719;48.130;11.630;2024-01-30T09:11:08;3.70;99.90
21123;DHT22;10719;48.130;11.630;2024-01-30T09:13:33;3.80;99.90
21123;DHT22;10719;48.130;11.630;2024-01-30T09:15:59;3.90;99.90
21123;DHT22;10719;48.130;11.630;2024-01-30T09:18:24;4.00;99.90
21123;DHT22;10719;48.130;11.630;2024-01-30T09:20:50;4.10;99.90
21123;DHT22;10719;48.130;11.630;2024-01-30T09:23:16;4.10;99.90
21123;DHT22;10719;48.130;11.630;2024-01-30T09:25:43;4.30;99.90
21123;DHT22;10719;48.130;11.630;2024-01-30T09:28:09;4.60;99.90
21123;DHT22;10719;48.130;11.630;2024-01-30T09:30:35;4.80;99.90
21123;DHT22;10719;48.130;11.630;2024-01-30T09:33:00;5.00;99.90
21123;DHT22;10719;48.130;11.630;2024-01-30T09:35:26;5.10;99.90
21123;DHT22;10719;48.130;11.630;2024-01-30T09:37:51;5.30;99.90
21123;DHT22;10719;48.130;11.630;2024-01-30T09:40:18;5.40;99.90
21123;DHT22;10719;48.130;11.630;2024-01-30T09:42:46;5.50;99.90
21123;DHT22;10719;48.130;11.630;2024-01-30T09:45:14;5.70;99.90
21123;DHT22;10719;48.130;11.630;2024-01-30T09:47:44;5.70;99.90
21123;DHT22;10719;48.130;11.630;2024-01-30T09:50:11;5.90;99.90
21123;DHT22;10719;48.130;11.630;2024-01-30T09:52:36;5.90;99.90
21123;DHT22;10719;48.130;11.630;2024-01-30T09:55:03;6.00;99.90
21123;DHT22;10719;48.130;11.630;2024-01-30T09:57:29;6.10;99.90
21123;DHT22;10719;48.130;11.630;2024-01-30T09:59:55;6.20;99.90
21123;DHT22;10719;48.130;11.630;2024-01-30T10:02:21;6.30;99.90
21123;DHT22;10719;48.130;11.630;2024-01-30T10:04:48;6.40;99.90
21123;DHT22;10719;48.130;11.630;2024-01-30T10:07:14;6.50;99.90
21123;DHT22;10719;48.130;11.630;2024-01-30T10:09:40;6.60;99.90
21123;DHT22;10719;48.130;11.630;2024-01-30T10:12:06;6.80;99.90
21123;DHT22;10719;48.130;11.630;2024-01-30T10:14:33;6.90;99.90
21123;DHT22;10719;48.130;11.630;2024-01-30T10:16:58;7.10;99.90
21123;DHT22;10719;48.130;11.630;2024-01-30T10:19:24;7.30;99.90
21123;DHT22;10719;48.130;11.630;2024-01-30T10:21:50;7.40;99.90
21123;DHT22;10719;48.130;11.630;2024-01-30T10:24:16;7.60;99.90
21123;DHT22;10719;48.130;11.630;2024-01-30T10:26:44;7.70;99.90
21123;DHT22;10719;48.130;11.630;2024-01-30T10:29:09;7.90;99.90
21123;DHT22;10719;48.130;11.630;2024-01-30T10:31:35;8.00;99.90
21123;DHT22;10719;48.130;11.630;2024-01-30T10:34:00;8.20;99.90
21123;DHT22;10719;48.130;11.630;2024-01-30T10:36:28;8.40;99.90
21123;DHT22;10719;48.130;11.630;2024-01-30T10:38:59;8.80;99.90
21123;DHT22;10719;48.130;11.630;2024-01-30T10:41:31;9.80;99.90
21123;DHT22;10719;48.130;11.630;2024-01-30T10:44:08;11.90;99.90
21123;DHT22;10719;48.130;11.630;2024-01-30T10:46:35;13.80;99.90
21123;DHT22;10719;48.130;11.630;2024-01-30T10:49:04;14.30;99.90
21123;DHT22;10719;48.130;11.630;2024-01-30T10:51:31;14.20;99.90
21123;DHT22;10719;48.130;11.630;2024-01-30T10:53:57;13.90;99.90
21123;DHT22;10719;48.130;11.630;2024-01-30T10:56:24;13.60;99.90
21123;DHT22;10719;48.130;11.630;2024-01-30T10:58:50;13.60;99.90
21123;DHT22;10719;48.130;11.630;2024-01-30T11:01:22;14.20;99.90
21123;DHT22;10719;48.130;11.630;2024-01-30T11:03:55;14.90;99.90
21123;DHT22;10719;48.130;11.630;2024-01-30T11:06:28;15.80;99.90
21123;DHT22;10719;48.130;11.630;2024-01-30T11:09:03;16.50;99.90
21123;DHT22;10719;48.130;11.630;2024-01-30T11:11:57;17.10;99.90
21123;DHT22;10719;48.130;11.630;2024-01-30T11:14:28;17.20;99.90
21123;DHT22;10719;48.130;11.630;2024-01-30T11:16:57;17.70;99.90
21123;DHT22;10719;48.130;11.630;2024-01-30T11:19:25;18.10;99.90
21123;DHT22;10719;48.130;11.630;2024-01-30T11:21:54;18.90;99.90
21123;DHT22;10719;48.130;11.630;2024-01-30T11:24:20;19.30;99.90
21123;DHT22;10719;48.130;11.630;2024-01-30T11:26:58;19.00;99.90
21123;DHT22;10719;48.130;11.630;2024-01-30T11:29:28;19.30;99.90
21123;DHT22;10719;48.130;11.630;2024-01-30T11:31:58;18.40;99.90
21123;DHT22;10719;48.130;11.630;2024-01-30T11:34:24;17.60;99.90
21123;DHT22;10719;48.130;11.630;2024-01-30T11:37:02;16.20;99.90
21123;DHT22;10719;48.130;11.630;2024-01-30T11:39:32;15.60;99.90
21123;DHT22;10719;48.130;11.630;2024-01-30T11:41:58;15.30;99.90
21123;DHT22;10719;48.130;11.630;2024-01-30T11:44:25;15.30;99.90
21123;DHT22;10719;48.130;11.630;2024-01-30T11:46:51;15.00;99.90
21123;DHT22;10719;48.130;11.630;2024-01-30T11:49:17;14.90;99.90
21123;DHT22;10719;48.130;11.630;2024-01-30T11:51:45;14.60;99.90
21123;DHT22;10719;48.130;11.630;2024-01-30T11:54:11;14.60;99.90
21123;DHT22;10719;48.130;11.630;2024-01-30T11:56:37;14.60;99.90
21123;DHT22;10719;48.130;11.630;2024-01-30T11:59:04;14.90;99.90
21123;DHT22;10719;48.130;11.630;2024-01-30T12:01:30;14.80;99.90
21123;DHT22;10719;48.130;11.630;2024-01-30T12:03:57;14.80;99.90
21123;DHT22;10719;48.130;11.630;2024-01-30T12:06:23;14.50;99.90
21123;DHT22;10719;48.130;11.630;2024-01-30T12:09:02;14.10;99.90
21123;DHT22;10719;48.130;11.630;2024-01-30T12:11:47;13.80;99.90
21123;DHT22;10719;48.130;11.630;2024-01-30T12:14:16;13.50;99.90
21123;DHT22;10719;48.130;11.630;2024-01-30T12:16:42;13.60;99.90
21123;DHT22;10719;48.130;11.630;2024-01-30T12:19:08;13.60;99.90
21123;DHT22;10719;48.130;11.630;2024-01-30T12:21:34;13.50;99.90
21123;DHT22;10719;48.130;11.630;2024-01-30T12:24:00;13.80;99.90
21123;DHT22;10719;48.130;11.630;2024-01-30T12:26:26;13.90;99.90
21123;DHT22;10719;48.130;11.630;2024-01-30T12:28:55;14.00;99.90
21123;DHT22;10719;48.130;11.630;2024-01-30T12:31:32;14.10;99.90
21123;DHT22;10719;48.130;11.630;2024-01-30T12:34:00;14.50;99.90
21123;DHT22;10719;48.130;11.630;2024-01-30T12:36:26;14.60;99.90
21123;DHT22;10719;48.130;11.630;2024-01-30T12:38:52;14.40;99.90
21123;DHT22;10719;48.130;11.630;2024-01-30T12:41:18;14.20;99.90
21123;DHT22;10719;48.130;11.630;2024-01-30T12:43:45;14.20;99.90
21123;DHT22;10719;48.130;11.630;2024-01-30T12:46:13;14.30;99.90
21123;DHT22;10719;48.130;11.630;2024-01-30T12:48:38;14.10;99.90
21123;DHT22;10719;48.130;11.630;2024-01-30T12:51:04;14.10;99.90
21123;DHT22;10719;48.130;11.630;2024-01-30T12:53:30;14.20;99.90
21123;DHT22;10719;48.130;11.630;2024-01-30T12:55:55;14.30;99.90
21123;DHT22;10719;48.130;11.630;2024-01-30T12:58:21;14.20;99.90
21123;DHT22;10719;48.130;11.630;2024-01-30T13:00:47;14.20;99.90
21123;DHT22;10719;48.130;11.630;2024-01-30T13:03:13;14.30;99.90
21123;DHT22;10719;48.130;11.630;2024-01-30T13:05:38;14.20;99.90
21123;DHT22;10719;48.130;11.630;2024-01-30T13:08:04;14.20;99.90
21123;DHT22;10719;48.130;11.630;2024-01-30T13:10:30;14.30;99.90
21123;DHT22;10719;48.130;11.630;2024-01-30T13:12:56;14.40;99.90
21123;DHT22;10719;48.130;11.630;2024-01-30T13:15:21;14.60;99.90
21123;DHT22;10719;48.130;11.630;2024-01-30T13:17:48;15.00;99.90
21123;DHT22;10719;48.130;11.630;2024-01-30T13:20:14;16.00;99.90
21123;DHT22;10719;48.130;11.630;2024-01-30T13:22:45;17.40;99.90
21123;DHT22;10719;48.130;11.630;2024-01-30T13:25:10;18.20;99.90
21123;DHT22;10719;48.130;11.630;2024-01-30T13:27:37;18.80;99.90
21123;DHT22;10719;48.130;11.630;2024-01-30T13:30:03;19.70;99.90
21123;DHT22;10719;48.130;11.630;2024-01-30T13:32:29;20.00;99.70
21123;DHT22;10719;48.130;11.630;2024-01-30T13:34:55;20.00;99.90
21123;DHT22;10719;48.130;11.630;2024-01-30T13:37:21;20.80;99.00
21123;DHT22;10719;48.130;11.630;2024-01-30T13:39:46;19.90;99.90
21123;DHT22;10719;48.130;11.630;2024-01-30T13:42:12;20.20;99.90
21123;DHT22;10719;48.130;11.630;2024-01-30T13:44:38;20.40;99.90
21123;DHT22;10719;48.130;11.630;2024-01-30T13:47:03;19.90;99.90
21123;DHT22;10719;48.130;11.630;2024-01-30T13:49:29;19.50;99.90
21123;DHT22;10719;48.130;11.630;2024-01-30T13:51:55;19.70;99.90
21123;DHT22;10719;48.130;11.630;2024-01-30T13:54:20;19.20;99.90
21123;DHT22;10719;48.130;11.630;2024-01-30T13:56:46;18.90;99.90
21123;DHT22;10719;48.130;11.630;2024-01-30T13:59:11;18.80;99.90
21123;DHT22;10719;48.130;11.630;2024-01-30T14:01:37;18.10;99.90
21123;DHT22;10719;48.130;11.630;2024-01-30T14:04:03;16.90;99.90
21123;DHT22;10719;48.130;11.630;2024-01-30T14:06:28;16.40;99.90
21123;DHT22;10719;48.130;11.630;2024-01-30T14:08:54;15.90;99.90
21123;DHT22;10719;48.130;11.630;2024-01-30T14:11:19;15.50;99.90
21123;DHT22;10719;48.130;11.630;2024-01-30T14:13:45;15.10;99.90
21123;DHT22;10719;48.130;11.630;2024-01-30T14:16:11;14.80;99.90
21123;DHT22;10719;48.130;11.630;2024-01-30T14:18:36;14.60;99.90
21123;DHT22;10719;48.130;11.630;2024-01-30T14:21:02;14.30;99.90
21123;DHT22;10719;48.130;11.630;2024-01-30T14:23:28;14.00;99.90
21123;DHT22;10719;48.130;11.630;2024-01-30T14:25:53;13.80;99.90
21123;DHT22;10719;48.130;11.630;2024-01-30T14:28:19;13.70;99.90
21123;DHT22;10719;48.130;11.630;2024-01-30T14:30:44;13.50;99.90
21123;DHT22;10719;48.130;11.630;2024-01-30T14:33:10;13.40;99.90
21123;DHT22;10719;48.130;11.630;2024-01-30T14:35:36;13.30;99.90
21123;DHT22;10719;48.130;11.630;2024-01-30T14:38:01;13.00;99.90
21123;DHT22;10719;48.130;11.630;2024-01-30T14:40:29;12.90;99.90
21123;DHT22;10719;48.130;11.630;2024-01-30T14:42:55;12.90;99.90
21123;DHT22;10719;48.130;11.630;2024-01-30T14:45:20;12.90;99.90
21123;DHT22;10719;48.130;11.630;2024-01-30T14:47:47;12.60;99.90
21123;DHT22;10719;48.130;11.630;2024-01-30T14:50:13;12.30;99.90
21123;DHT22;10719;48.130;11.630;2024-01-30T14:52:38;12.20;99.90
21123;DHT22;10719;48.130;11.630;2024-01-30T14:55:06;12.10;99.90
21123;DHT22;10719;48.130;11.630;2024-01-30T14:57:31;11.90;99.90
21123;DHT22;10719;48.130;11.630;2024-01-30T14:59:57;11.90;99.90
21123;DHT22;10719;48.130;11.630;2024-01-30T15:02:22;11.70;99.90
21123;DHT22;10719;48.130;11.630;2024-01-30T15:04:48;11.70;99.90
21123;DHT22;10719;48.130;11.630;2024-01-30T15:07:14;11.60;99.90
21123;DHT22;10719;48.130;11.630;2024-01-30T15:09:39;11.50;99.90
21123;DHT22;10719;48.130;11.630;2024-01-30T15:12:05;11.50;99.90
21123;DHT22;10719;48.130;11.630;2024-01-30T15:14:30;11.40;99.90